Time;durP1;ratioP1;P1;durP2;ratioP2;P2;SDS_P1;SDS_P2;PMS_P1;PMS_P2;Temp;Humidity;BMP_temperature;BMP_pressure;BME280_temperature;BME280_humidity;BME280_pressure;Samples;Min_cycle;Max_cycle;Signal;HPM_P1;HPM_P2
2023/06/24 00:02:29;;;;;;;8.02;6.32;;;15.50;99.90;;;;;;6155393;28;20051;-80
2023/06/24 00:05:31;;;;;;;8.05;7.32;;;15.50;99.90;;;;;;6159872;28;20062;-80
2023/06/24 00:08:34;;;;;;;10.52;6.05;;;15.40;99.90;;;;;;6155898;29;20142;-79
2023/06/24 00:11:35;;;;;;;11.73;7.60;;;15.40;99.90;;;;;;6160869;28;20055;-79
2023/06/24 00:14:38;;;;;;;8.35;7.45;;;15.30;99.90;;;;;;6158441;28;20055;-79
2023/06/24 00:17:41;;;;;;;7.75;6.95;;;15.20;99.90;;;;;;6161655;28;20051;-79
2023/06/24 00:20:44;;;;;;;8.30;7.40;;;15.20;99.90;;;;;;6161996;28;20066;-79
2023/06/24 00:23:49;;;;;;;13.20;7.57;;;15.20;99.90;;;;;;6154588;28;20102;-80
2023/06/24 00:26:50;;;;;;;7.85;7.05;;;15.10;99.90;;;;;;6153736;28;20043;-80
2023/06/24 00:29:53;;;;;;;9.40;7.40;;;15.00;99.90;;;;;;6152544;28;20510;-81
2023/06/24 00:32:55;;;;;;;9.45;7.78;;;15.00;99.90;;;;;;6157288;28;20527;-80
2023/06/24 00:35:57;;;;;;;7.50;6.80;;;14.90;99.90;;;;;;6158619;28;20538;-79
2023/06/24 00:39:01;;;;;;;9.85;7.10;;;14.80;99.90;;;;;;6159360;28;20106;-81
2023/06/24 00:42:03;;;;;;;10.15;7.75;;;14.80;99.90;;;;;;6157748;28;20051;-80
2023/06/24 00:48:24;;;;;;;7.70;6.95;;;14.70;99.90;;;;;;6329045;27;20462;-78
2023/06/24 00:51:26;;;;;;;8.10;7.40;;;14.70;99.90;;;;;;6299592;28;20396;-79
2023/06/24 00:54:30;;;;;;;9.25;8.30;;;14.70;99.90;;;;;;6285656;28;20566;-79
2023/06/24 00:57:32;;;;;;;9.00;7.65;;;14.70;99.90;;;;;;6279165;28;20088;-79
2023/06/24 01:00:34;;;;;;;9.40;7.88;;;14.60;99.90;;;;;;6276941;28;20044;-79
2023/06/24 01:03:37;;;;;;;10.40;7.30;;;14.60;99.90;;;;;;6275786;28;20049;-78
2023/06/24 01:06:43;;;;;;;9.10;8.15;;;14.60;99.90;;;;;;6272622;28;20049;-79
2023/06/24 01:09:45;;;;;;;8.40;7.60;;;14.60;99.90;;;;;;6273073;28;20068;-80
2023/06/24 01:12:46;;;;;;;7.90;7.20;;;14.50;99.90;;;;;;6275122;28;20534;-78
2023/06/24 01:15:49;;;;;;;8.55;6.93;;;14.50;99.90;;;;;;6278235;28;20049;-80
2023/06/24 01:18:58;;;;;;;9.05;6.72;;;14.50;99.90;;;;;;6277067;28;20060;-79
2023/06/24 01:22:21;;;;;;;9.30;8.45;;;14.40;99.90;;;;;;6278571;28;20045;-79
2023/06/24 01:25:39;;;;;;;9.57;7.68;;;14.30;99.90;;;;;;6278674;28;20053;-79
2023/06/24 01:29:10;;;;;;;9.23;7.70;;;14.30;99.90;;;;;;6277615;28;20049;-79
2023/06/24 01:32:19;;;;;;;9.50;8.68;;;14.30;99.90;;;;;;6278328;28;20045;-80
2023/06/24 01:35:26;;;;;;;8.88;7.32;;;14.30;99.90;;;;;;6278719;28;20059;-80
2023/06/24 01:38:33;;;;;;;8.02;7.22;;;14.30;99.90;;;;;;6273210;28;20508;-80
2023/06/24 01:41:40;;;;;;;8.15;7.25;;;14.20;99.90;;;;;;6275336;28;20508;-80
2023/06/24 01:44:46;;;;;;;8.20;7.43;;;14.20;99.90;;;;;;6276622;28;20064;-79
2023/06/24 01:47:55;;;;;;;9.00;8.13;;;14.20;99.90;;;;;;6275939;28;20045;-80
2023/06/24 01:51:01;;;;;;;9.13;8.32;;;14.20;99.90;;;;;;6276313;28;20041;-79
2023/06/24 01:54:06;;;;;;;8.63;7.80;;;14.20;99.90;;;;;;6275595;28;20080;-80
2023/06/24 01:57:10;;;;;;;8.00;7.18;;;14.10;99.90;;;;;;6272709;28;20049;-80
2023/06/24 02:00:13;;;;;;;7.45;6.75;;;14.10;99.90;;;;;;6258099;28;20057;-79
2023/06/24 02:03:18;;;;;;;7.00;6.40;;;14.00;99.90;;;;;;6257560;28;20049;-80
2023/06/24 02:06:21;;;;;;;8.10;7.40;;;14.00;99.90;;;;;;6256847;28;20061;-80
2023/06/24 02:09:24;;;;;;;8.98;7.53;;;14.00;99.90;;;;;;6256723;28;20524;-79
2023/06/24 02:12:27;;;;;;;7.88;7.10;;;14.00;99.90;;;;;;6257400;28;20104;-79
2023/06/24 02:15:30;;;;;;;8.85;7.35;;;14.00;99.90;;;;;;6256469;28;20041;-79
2023/06/24 02:18:34;;;;;;;7.82;7.03;;;13.90;99.90;;;;;;6256074;28;20045;-80
2023/06/24 02:21:37;;;;;;;9.93;6.93;;;13.90;99.90;;;;;;6257350;28;20052;-78
2023/06/24 02:24:39;;;;;;;9.02;7.82;;;13.90;99.90;;;;;;6257626;28;20135;-79
2023/06/24 02:27:41;;;;;;;7.78;7.07;;;13.80;99.90;;;;;;6256638;28;20065;-80
2023/06/24 02:30:44;;;;;;;7.18;6.55;;;13.80;99.90;;;;;;6257765;28;20042;-80
2023/06/24 02:33:47;;;;;;;8.15;7.43;;;13.80;99.90;;;;;;6256813;28;20584;-80
2023/06/24 02:36:49;;;;;;;8.85;7.35;;;13.70;99.90;;;;;;6258156;28;20042;-79
2023/06/24 02:39:51;;;;;;;10.40;8.48;;;13.70;99.90;;;;;;6256027;28;20427;-79
2023/06/24 02:42:53;;;;;;;8.38;7.53;;;13.70;99.90;;;;;;6220202;28;20042;-79
2023/06/24 02:45:54;;;;;;;8.43;7.47;;;13.80;99.90;;;;;;6207480;28;20046;-80
2023/06/24 02:48:59;;;;;;;8.88;8.00;;;13.80;99.90;;;;;;6210037;28;20046;-78
2023/06/24 02:52:01;;;;;;;8.45;7.75;;;13.80;99.90;;;;;;6206610;28;20042;-79
2023/06/24 02:55:03;;;;;;;8.60;7.82;;;13.70;99.90;;;;;;6205897;28;20057;-79
2023/06/24 02:58:07;;;;;;;9.85;8.18;;;13.70;99.90;;;;;;6211191;28;20041;-79
2023/06/24 03:01:09;;;;;;;9.63;7.25;;;13.60;99.90;;;;;;6221363;28;20524;-79
2023/06/24 03:04:12;;;;;;;8.32;7.45;;;13.60;99.90;;;;;;6231729;28;20052;-79
2023/06/24 03:07:15;;;;;;;9.38;7.25;;;13.50;99.90;;;;;;6228011;28;20046;-79
2023/06/24 03:10:16;;;;;;;8.02;7.32;;;13.40;99.90;;;;;;6236882;28;20124;-79
2023/06/24 03:13:18;;;;;;;11.52;8.98;;;13.30;99.90;;;;;;6253179;28;20057;-78
2023/06/24 03:16:20;;;;;;;9.73;8.80;;;13.30;99.90;;;;;;6235733;28;20050;-79
2023/06/24 03:19:23;;;;;;;8.75;6.70;;;13.20;99.90;;;;;;6233932;28;20140;-79
2023/06/24 03:22:25;;;;;;;8.57;7.70;;;13.20;99.90;;;;;;6233494;28;20049;-78
2023/06/24 03:25:26;;;;;;;7.65;6.95;;;13.20;99.90;;;;;;6234067;28;20064;-79
2023/06/24 03:28:28;;;;;;;8.52;7.57;;;13.20;99.90;;;;;;6232722;28;20416;-79
2023/06/24 03:31:30;;;;;;;9.20;8.23;;;13.20;99.90;;;;;;6230938;28;20045;-78
2023/06/24 03:34:33;;;;;;;8.80;7.90;;;13.30;99.90;;;;;;6227804;28;20050;-78
2023/06/24 03:37:37;;;;;;;8.75;7.95;;;13.30;99.90;;;;;;6224140;28;20069;-78
2023/06/24 03:40:39;;;;;;;11.80;8.50;;;13.30;99.90;;;;;;6224541;28;20129;-78
2023/06/24 03:43:41;;;;;;;8.95;8.10;;;13.40;99.90;;;;;;6245178;28;20064;-78
2023/06/24 03:46:43;;;;;;;9.23;8.43;;;13.40;99.90;;;;;;6247998;28;20053;-78
2023/06/24 03:49:46;;;;;;;9.80;8.90;;;13.50;99.90;;;;;;6252659;28;20056;-77
2023/06/24 03:52:48;;;;;;;8.23;7.10;;;13.50;99.90;;;;;;6251226;28;20053;-78
2023/06/24 03:55:49;;;;;;;9.75;6.88;;;13.60;99.90;;;;;;6248826;28;20060;-77
2023/06/24 03:58:51;;;;;;;8.00;7.28;;;13.80;99.90;;;;;;6249402;28;20045;-78
2023/06/24 04:01:53;;;;;;;9.88;7.25;;;13.80;99.90;;;;;;6249097;28;20436;-78
2023/06/24 04:04:57;;;;;;;7.07;6.43;;;13.90;99.90;;;;;;6249373;28;20424;-77
2023/06/24 04:07:59;;;;;;;13.07;7.22;;;14.00;99.90;;;;;;6249323;28;20042;-78
2023/06/24 04:11:03;;;;;;;8.25;6.85;;;14.00;99.90;;;;;;6249937;28;20045;-77
2023/06/24 04:14:06;;;;;;;8.48;7.68;;;14.10;99.90;;;;;;6249457;28;20045;-77
2023/06/24 04:17:08;;;;;;;8.98;7.50;;;14.30;99.90;;;;;;6250158;28;20049;-78
2023/06/24 04:20:12;;;;;;;7.88;5.32;;;14.60;99.90;;;;;;6250195;28;20053;-78
2023/06/24 04:23:14;;;;;;;7.00;5.53;;;15.10;99.90;;;;;;6249343;28;20061;-77
2023/06/24 04:26:16;;;;;;;5.90;5.40;;;15.50;99.90;;;;;;6251267;28;20124;-78
2023/06/24 04:29:17;;;;;;;6.82;6.22;;;15.70;99.90;;;;;;6251753;28;20045;-78
2023/06/24 04:32:19;;;;;;;7.22;5.65;;;15.80;99.90;;;;;;6253041;28;20056;-78
2023/06/24 04:35:22;;;;;;;6.93;6.10;;;15.90;99.90;;;;;;6250874;28;20046;-77
2023/06/24 04:38:24;;;;;;;6.68;4.95;;;16.10;99.90;;;;;;6245828;28;20521;-77
2023/06/24 04:41:25;;;;;;;6.95;5.20;;;16.50;99.90;;;;;;6246724;28;20637;-77
2023/06/24 04:44:27;;;;;;;5.72;5.13;;;16.90;99.90;;;;;;6248261;28;20374;-77
2023/06/24 04:47:29;;;;;;;7.90;5.78;;;17.40;99.90;;;;;;6225090;28;20073;-77
2023/06/24 04:50:32;;;;;;;5.93;4.88;;;17.80;99.90;;;;;;6224790;28;20057;-77
2023/06/24 04:53:35;;;;;;;6.28;5.05;;;18.30;99.90;;;;;;6224558;28;20038;-77
2023/06/24 04:56:36;;;;;;;5.13;4.72;;;18.90;99.90;;;;;;6225395;28;20054;-77
2023/06/24 04:59:39;;;;;;;5.88;4.32;;;19.50;99.90;;;;;;6224719;28;20045;-77
2023/06/24 05:02:41;;;;;;;5.97;4.43;;;20.00;99.90;;;;;;6223525;28;20433;-77
2023/06/24 05:05:44;;;;;;;4.65;4.25;;;20.80;99.90;;;;;;6226466;28;20121;-78
2023/06/24 05:08:45;;;;;;;4.50;3.70;;;21.70;99.90;;;;;;6232997;28;20156;-79
2023/06/24 05:11:47;;;;;;;5.13;3.90;;;22.50;99.90;;;;;;6223251;28;20057;-78
2023/06/24 05:14:51;;;;;;;4.55;4.05;;;23.00;99.90;;;;;;6223326;28;20133;-78
2023/06/24 05:17:53;;;;;;;4.60;4.20;;;23.60;99.30;;;;;;6222334;28;20058;-78
2023/06/24 05:20:56;;;;;;;5.60;4.40;;;24.30;97.70;;;;;;6223283;28;20508;-78
2023/06/24 05:23:58;;;;;;;4.70;4.28;;;24.60;95.60;;;;;;6222585;28;20440;-78
2023/06/24 05:27:05;;;;;;;5.25;4.38;;;25.30;94.50;;;;;;6223361;28;20039;-78
2023/06/24 05:30:08;;;;;;;7.35;4.50;;;25.90;92.70;;;;;;6222043;28;20077;-76
2023/06/24 05:33:09;;;;;;;4.03;3.25;;;26.50;91.60;;;;;;6222939;28;20061;-77
2023/06/24 05:36:12;;;;;;;4.68;3.88;;;27.10;90.00;;;;;;6227881;28;20053;-78
2023/06/24 05:39:14;;;;;;;7.78;4.60;;;27.80;85.90;;;;;;6226641;28;20505;-78
2023/06/24 05:42:16;;;;;;;5.10;4.63;;;28.40;83.50;;;;;;6227227;28;20045;-77
2023/06/24 05:45:18;;;;;;;7.82;4.47;;;28.80;79.20;;;;;;6226249;28;20060;-77
2023/06/24 05:48:19;;;;;;;4.80;4.40;;;29.40;76.10;;;;;;6226160;28;20042;-77
2023/06/24 05:51:23;;;;;;;5.88;4.40;;;29.80;73.10;;;;;;6226448;28;20045;-75
2023/06/24 05:54:24;;;;;;;5.03;3.92;;;30.20;69.90;;;;;;6223445;28;20061;-78
2023/06/24 05:57:26;;;;;;;5.72;3.67;;;30.70;67.90;;;;;;6225570;28;20077;-75
2023/06/24 06:00:28;;;;;;;5.28;4.78;;;31.00;66.00;;;;;;6224690;28;20441;-78
2023/06/24 06:03:29;;;;;;;5.72;4.85;;;31.10;64.60;;;;;;6224545;28;20056;-75
2023/06/24 06:06:32;;;;;;;9.40;4.28;;;31.50;63.20;;;;;;6223370;28;20061;-76
2023/06/24 06:09:34;;;;;;;6.72;4.05;;;31.80;61.70;;;;;;6195755;28;20045;-75
2023/06/24 06:12:36;;;;;;;6.20;5.30;;;31.70;60.50;;;;;;6227617;28;20068;-76
2023/06/24 06:15:37;;;;;;;8.00;5.60;;;31.40;60.10;;;;;;6270230;28;20093;-75
2023/06/24 06:18:39;;;;;;;8.23;6.32;;;31.30;60.30;;;;;;6260602;28;20056;-78
2023/06/24 06:21:42;;;;;;;9.82;8.15;;;31.40;59.80;;;;;;6252350;28;20056;-76
2023/06/24 06:24:44;;;;;;;8.68;6.88;;;30.70;59.80;;;;;;6232179;28;20068;-79
2023/06/24 06:27:45;;;;;;;10.85;6.10;;;29.60;61.10;;;;;;6229429;28;20042;-79
2023/06/24 06:30:47;;;;;;;9.30;6.70;;;28.70;63.20;;;;;;6226139;28;20041;-80
2023/06/24 06:33:49;;;;;;;10.05;6.95;;;27.70;64.20;;;;;;6223974;28;20042;-79
2023/06/24 06:36:52;;;;;;;10.57;6.70;;;27.10;65.70;;;;;;6230703;28;20062;-80
2023/06/24 06:39:53;;;;;;;13.20;7.28;;;26.70;67.10;;;;;;6230244;28;20385;-79
2023/06/24 06:42:55;;;;;;;7.68;6.93;;;26.40;68.30;;;;;;6231555;28;20044;-80
2023/06/24 06:45:57;;;;;;;6.85;6.15;;;26.10;69.20;;;;;;6225315;28;20050;-78
2023/06/24 06:48:59;;;;;;;8.48;6.13;;;25.90;70.00;;;;;;6225913;28;20038;-79
2023/06/24 06:52:03;;;;;;;6.78;6.10;;;25.50;70.90;;;;;;6225672;28;20060;-80
2023/06/24 06:55:05;;;;;;;9.02;6.22;;;25.20;72.10;;;;;;6226622;28;20409;-81
2023/06/24 06:58:06;;;;;;;8.30;6.18;;;25.10;73.30;;;;;;6229213;28;20056;-79
2023/06/24 07:01:08;;;;;;;10.75;6.47;;;25.10;73.50;;;;;;6224832;28;20064;-79
2023/06/24 07:04:10;;;;;;;6.43;5.07;;;25.10;74.70;;;;;;6225717;28;20065;-81
2023/06/24 07:07:13;;;;;;;8.30;5.40;;;25.20;74.60;;;;;;6230796;28;20042;-79
2023/06/24 07:10:15;;;;;;;10.77;6.00;;;25.30;74.60;;;;;;6231536;28;20066;-78
2023/06/24 07:13:16;;;;;;;9.02;6.18;;;25.40;74.80;;;;;;6231543;28;20053;-79
2023/06/24 07:16:18;;;;;;;9.63;5.43;;;25.50;75.10;;;;;;6227813;28;20049;-80
2023/06/24 07:19:20;;;;;;;9.50;5.20;;;25.60;75.00;;;;;;6228946;28;20054;-80
2023/06/24 07:22:23;;;;;;;7.15;5.30;;;25.70;75.30;;;;;;6230009;28;20576;-78
2023/06/24 07:25:26;;;;;;;5.80;4.97;;;25.80;75.10;;;;;;6228382;28;20131;-79
2023/06/24 07:28:27;;;;;;;5.40;4.90;;;25.90;75.10;;;;;;6224783;28;20187;-79
2023/06/24 07:31:29;;;;;;;5.63;4.85;;;25.90;74.60;;;;;;6224104;28;20041;-80
2023/06/24 07:34:31;;;;;;;5.20;4.38;;;26.00;74.60;;;;;;6223972;28;20121;-80
2023/06/24 07:37:35;;;;;;;8.35;5.97;;;26.20;74.50;;;;;;6219827;28;20034;-79
2023/06/24 07:40:37;;;;;;;5.00;4.50;;;26.30;73.80;;;;;;6229036;28;20409;-80
2023/06/24 07:43:39;;;;;;;7.97;4.78;;;26.50;73.40;;;;;;6226357;28;20702;-79
2023/06/24 07:46:41;;;;;;;5.88;5.25;;;26.70;73.00;;;;;;6225138;28;20401;-79
2023/06/24 07:49:42;;;;;;;5.93;4.93;;;26.80;73.00;;;;;;6225026;28;20049;-80
2023/06/24 07:52:45;;;;;;;6.38;5.18;;;26.90;72.90;;;;;;6225680;28;20054;-79
2023/06/24 07:55:50;;;;;;;5.35;4.85;;;27.00;72.60;;;;;;6227156;28;20644;-79
2023/06/24 07:58:51;;;;;;;5.75;4.93;;;27.10;72.20;;;;;;6226678;28;20042;-78
2023/06/24 08:01:53;;;;;;;8.02;5.22;;;27.20;71.60;;;;;;6226988;28;20052;-80
2023/06/24 08:04:55;;;;;;;6.38;4.82;;;27.40;71.00;;;;;;6225524;28;20052;-80
2023/06/24 08:07:59;;;;;;;6.10;4.68;;;27.50;70.00;;;;;;6220373;28;20049;-79
2023/06/24 08:11:00;;;;;;;5.68;4.70;;;27.60;69.70;;;;;;6226533;28;20057;-80
2023/06/24 08:14:05;;;;;;;5.85;5.18;;;27.70;69.30;;;;;;6225742;28;20070;-78
2023/06/24 08:17:07;;;;;;;6.13;4.28;;;27.90;68.50;;;;;;6233718;28;20056;-79
2023/06/24 08:20:10;;;;;;;3.90;3.08;;;28.10;67.20;;;;;;6237284;28;20065;-78
2023/06/24 08:23:12;;;;;;;5.18;3.65;;;28.20;65.00;;;;;;6229286;28;20042;-79
2023/06/24 08:26:15;;;;;;;3.63;3.08;;;28.20;63.20;;;;;;6230641;28;20045;-77
2023/06/24 08:36:34;;;;;;;3.80;3.42;;;28.10;61.50;;;;;;6227876;28;20644;-81
2023/06/24 08:39:38;;;;;;;4.05;3.65;;;28.30;61.50;;;;;;6232603;28;20101;-79
2023/06/24 08:42:40;;;;;;;6.57;3.30;;;28.40;60.70;;;;;;6231375;28;20053;-81
2023/06/24 08:45:42;;;;;;;7.25;4.25;;;28.30;60.40;;;;;;6230972;28;20517;-79
2023/06/24 08:48:46;;;;;;;3.50;3.17;;;28.40;60.10;;;;;;6234168;28;20081;-79
2023/06/24 08:51:50;;;;;;;7.32;3.33;;;28.60;59.90;;;;;;6228521;28;20054;-76
2023/06/24 08:54:56;;;;;;;6.88;4.50;;;28.60;59.40;;;;;;6226782;28;20045;-79
2023/06/24 08:57:58;;;;;;;5.40;4.18;;;28.60;59.20;;;;;;6228894;28;20050;-78
2023/06/24 09:01:00;;;;;;;4.95;4.43;;;28.80;58.10;;;;;;6228693;28;21447;-80
2023/06/24 09:04:02;;;;;;;3.85;3.08;;;28.90;57.30;;;;;;6225755;28;20045;-80
2023/06/24 09:07:04;;;;;;;6.85;3.15;;;29.00;57.10;;;;;;6231235;28;20045;-78
2023/06/24 09:10:08;;;;;;;3.47;3.17;;;29.20;57.00;;;;;;6228241;28;20566;-78
2023/06/24 09:13:10;;;;;;;3.28;2.97;;;29.20;56.10;;;;;;6230239;28;20046;-79
2023/06/24 09:16:15;;;;;;;3.20;2.90;;;29.20;56.60;;;;;;6234112;28;20045;-78
2023/06/24 09:19:21;;;;;;;5.20;3.38;;;29.30;55.60;;;;;;6232376;28;20037;-82
2023/06/24 09:22:23;;;;;;;4.22;3.38;;;29.20;55.40;;;;;;6233813;28;20224;-79
2023/06/24 09:25:26;;;;;;;4.93;2.88;;;29.30;55.80;;;;;;6229342;28;20524;-78
2023/06/24 09:28:28;;;;;;;7.40;3.90;;;29.50;55.50;;;;;;6237156;28;20042;-77
2023/06/24 09:31:32;;;;;;;3.40;3.10;;;29.80;55.40;;;;;;6232675;28;20049;-78
2023/06/24 09:34:34;;;;;;;3.45;3.15;;;30.10;54.70;;;;;;6237423;28;20049;-80
2023/06/24 09:37:35;;;;;;;3.63;3.03;;;30.20;53.90;;;;;;6236881;28;20046;-81
2023/06/24 09:40:40;;;;;;;3.75;2.90;;;30.00;52.40;;;;;;6240847;28;20056;-78
2023/06/24 09:43:44;;;;;;;14.52;3.70;;;29.80;52.30;;;;;;6235548;28;20057;-80
2023/06/24 09:46:46;;;;;;;4.85;3.88;;;29.80;53.20;;;;;;6231336;28;20053;-77
2023/06/24 09:49:48;;;;;;;3.72;3.15;;;30.00;53.20;;;;;;6232798;28;20420;-79
2023/06/24 09:52:51;;;;;;;3.20;2.78;;;29.90;51.80;;;;;;6237229;28;22644;-80
2023/06/24 09:55:54;;;;;;;11.05;3.72;;;29.50;51.70;;;;;;6232545;28;20318;-80
2023/06/24 09:58:56;;;;;;;3.58;3.28;;;29.40;52.00;;;;;;6240401;28;20128;-79
2023/06/24 10:01:58;;;;;;;4.90;3.70;;;29.30;53.00;;;;;;6233030;28;20064;-79
2023/06/24 10:05:01;;;;;;;4.05;3.65;;;29.10;53.20;;;;;;6229359;28;20050;-80
2023/06/24 10:08:04;;;;;;;3.13;2.83;;;29.30;53.50;;;;;;6231210;28;20053;-79
2023/06/24 10:11:07;;;;;;;3.97;3.28;;;29.40;52.40;;;;;;6235212;28;20049;-82
2023/06/24 10:14:09;;;;;;;6.88;4.05;;;29.50;52.40;;;;;;6230628;28;20056;-78
2023/06/24 10:17:12;;;;;;;6.75;3.65;;;29.80;53.40;;;;;;6232576;28;20061;-78
2023/06/24 10:20:24;;;;;;;5.13;3.85;;;30.10;52.40;;;;;;6241422;28;20429;-79
2023/06/24 10:23:31;;;;;;;3.30;3.00;;;30.50;51.90;;;;;;6242726;28;20053;-80
2023/06/24 10:26:37;;;;;;;4.35;3.28;;;30.80;50.40;;;;;;6232513;28;20061;-79
2023/06/24 10:29:39;;;;;;;3.97;3.50;;;30.50;50.00;;;;;;6233178;28;20061;-78
2023/06/24 10:32:43;;;;;;;4.07;3.58;;;30.20;50.50;;;;;;6234579;28;20073;-81
2023/06/24 10:35:45;;;;;;;3.35;3.05;;;29.80;50.70;;;;;;6237510;28;20049;-79
2023/06/24 10:38:56;;;;;;;3.65;3.35;;;30.00;50.70;;;;;;6233650;28;20053;-79
2023/06/24 10:42:33;;;;;;;3.60;2.20;;;30.10;50.30;;;;;;6230805;28;20141;-77
2023/06/24 10:45:36;;;;;;;7.00;3.00;;;30.20;48.90;;;;;;6230385;28;20223;-78
2023/06/24 10:48:38;;;;;;;3.50;2.92;;;30.40;49.50;;;;;;6226335;28;20069;-77
2023/06/24 10:51:41;;;;;;;5.13;3.13;;;30.70;48.80;;;;;;6231265;28;20048;-78
2023/06/24 10:54:43;;;;;;;4.20;3.05;;;31.10;48.00;;;;;;6225839;28;20048;-78
2023/06/24 10:57:47;;;;;;;3.50;2.63;;;31.60;47.00;;;;;;6227025;28;20049;-78
2023/06/24 11:00:49;;;;;;;3.78;3.47;;;31.90;46.70;;;;;;6227733;28;20061;-78
2023/06/24 11:03:51;;;;;;;4.93;2.88;;;32.10;45.50;;;;;;6225000;28;20176;-79
2023/06/24 11:06:58;;;;;;;3.20;2.90;;;32.00;45.80;;;;;;6226938;28;20073;-76
2023/06/24 11:10:03;;;;;;;4.22;2.78;;;32.10;44.70;;;;;;6222841;28;20496;-76
2023/06/24 11:13:07;;;;;;;3.75;2.63;;;31.80;44.30;;;;;;6227413;28;20056;-77
2023/06/24 11:16:09;;;;;;;3.78;3.15;;;31.90;43.90;;;;;;6227395;28;20492;-77
2023/06/24 11:19:10;;;;;;;3.55;3.25;;;32.00;43.60;;;;;;6224255;28;20050;-78
2023/06/24 11:22:12;;;;;;;4.63;2.67;;;32.10;43.80;;;;;;6227344;28;20050;-77
2023/06/24 11:25:19;;;;;;;7.90;3.20;;;31.80;44.40;;;;;;6227204;28;20511;-76
2023/06/24 11:28:22;;;;;;;3.15;2.85;;;32.10;44.00;;;;;;6222503;28;20497;-77
2023/06/24 11:31:28;;;;;;;4.20;3.05;;;32.20;44.10;;;;;;6220307;28;20384;-77
2023/06/24 11:34:30;;;;;;;3.33;2.58;;;32.30;43.70;;;;;;6229097;28;20038;-78
2023/06/24 11:37:33;;;;;;;2.67;2.42;;;32.10;43.60;;;;;;6229662;28;20477;-76
2023/06/24 11:40:35;;;;;;;4.78;3.90;;;32.20;43.80;;;;;;6230746;28;20061;-78
2023/06/24 11:43:38;;;;;;;3.58;3.05;;;32.30;44.10;;;;;;6231088;28;20058;-78
2023/06/24 11:46:39;;;;;;;3.58;3.28;;;32.50;43.40;;;;;;6227764;28;20045;-78
2023/06/24 11:49:52;;;;;;;3.22;2.92;;;32.50;43.40;;;;;;6224495;28;20049;-78
2023/06/24 11:52:55;;;;;;;3.33;3.03;;;32.40;42.90;;;;;;6226474;28;20057;-78
2023/06/24 11:55:57;;;;;;;2.42;2.22;;;32.40;42.00;;;;;;6223552;28;20050;-77
2023/06/24 11:59:00;;;;;;;4.85;3.13;;;32.30;41.70;;;;;;6225000;28;20046;-78
2023/06/24 12:02:03;;;;;;;3.10;2.80;;;32.40;41.80;;;;;;6223171;28;20065;-78
2023/06/24 12:05:05;;;;;;;4.60;3.25;;;32.60;41.40;;;;;;6227799;28;20072;-77
2023/06/24 12:08:08;;;;;;;3.67;3.13;;;32.70;41.10;;;;;;6230594;28;20037;-77
2023/06/24 12:11:10;;;;;;;4.45;3.33;;;32.70;41.30;;;;;;6228609;28;20060;-78
2023/06/24 12:14:13;;;;;;;5.35;3.45;;;32.90;41.50;;;;;;6229630;28;20214;-78
2023/06/24 12:17:15;;;;;;;2.88;2.53;;;33.10;41.60;;;;;;6232685;28;20062;-77
2023/06/24 12:20:17;;;;;;;4.90;3.47;;;33.40;41.20;;;;;;6226496;28;20045;-78
2023/06/24 12:23:19;;;;;;;3.30;2.80;;;33.60;40.70;;;;;;6233408;28;20056;-77
2023/06/24 12:26:21;;;;;;;3.28;2.92;;;33.30;40.20;;;;;;6226355;28;20050;-77
2023/06/24 12:29:24;;;;;;;4.43;2.88;;;33.50;40.50;;;;;;6227253;28;20052;-78
2023/06/24 12:32:25;;;;;;;3.97;2.83;;;33.10;39.40;;;;;;6234952;28;20037;-76
2023/06/24 12:35:27;;;;;;;3.58;3.28;;;32.70;39.80;;;;;;6224521;28;20041;-76
2023/06/24 12:38:29;;;;;;;4.07;3.08;;;32.90;40.50;;;;;;6221553;28;20187;-77
2023/06/24 12:41:30;;;;;;;3.72;3.40;;;33.10;41.10;;;;;;6220375;28;20046;-76
2023/06/24 12:44:33;;;;;;;2.55;2.35;;;33.10;40.50;;;;;;6221946;28;20064;-76
2023/06/24 12:47:35;;;;;;;4.28;3.05;;;33.20;40.40;;;;;;6220776;28;20064;-76
2023/06/24 12:50:37;;;;;;;4.47;3.42;;;33.40;40.30;;;;;;6222966;28;20076;-77
2023/06/24 12:53:38;;;;;;;3.00;2.63;;;33.60;39.90;;;;;;6222619;28;20050;-77
2023/06/24 12:56:40;;;;;;;3.53;2.75;;;33.70;39.90;;;;;;6221520;28;20065;-78
2023/06/24 12:59:43;;;;;;;3.92;3.00;;;33.90;40.20;;;;;;6221395;28;20049;-77
2023/06/24 13:02:45;;;;;;;3.15;2.85;;;34.10;39.30;;;;;;6215844;28;20058;-77
2023/06/24 13:05:47;;;;;;;6.43;2.97;;;33.90;39.40;;;;;;6224388;28;20042;-77
2023/06/24 13:08:48;;;;;;;6.80;3.97;;;33.50;39.00;;;;;;6219952;28;20046;-76
2023/06/24 13:11:51;;;;;;;3.13;2.80;;;33.60;39.40;;;;;;6218136;28;20045;-77
2023/06/24 13:14:54;;;;;;;2.95;2.67;;;34.00;38.90;;;;;;6218866;28;20045;-77
2023/06/24 13:17:55;;;;;;;2.97;2.58;;;33.90;38.10;;;;;;6218212;28;20060;-77
2023/06/24 13:20:57;;;;;;;3.13;2.72;;;33.70;38.30;;;;;;6219704;28;20049;-77
2023/06/24 13:23:59;;;;;;;3.35;2.88;;;33.80;38.40;;;;;;6215915;28;20046;-78
2023/06/24 13:27:00;;;;;;;3.22;2.75;;;33.90;38.60;;;;;;6220154;28;20125;-77
2023/06/24 13:30:04;;;;;;;2.80;2.50;;;34.20;38.60;;;;;;6218118;28;20058;-76
2023/06/24 13:33:06;;;;;;;2.70;2.50;;;34.50;37.90;;;;;;6216290;28;20133;-76
2023/06/24 13:36:12;;;;;;;6.93;3.40;;;34.70;37.60;;;;;;6220121;28;20050;-77
2023/06/24 13:39:16;;;;;;;3.00;2.72;;;35.00;37.90;;;;;;6215078;28;20444;-78
2023/06/24 13:42:18;;;;;;;2.40;2.20;;;35.20;37.60;;;;;;6217992;28;20049;-76
2023/06/24 13:45:21;;;;;;;3.22;2.92;;;34.70;37.50;;;;;;6218219;28;20435;-77
2023/06/24 13:48:24;;;;;;;3.67;3.38;;;34.40;38.20;;;;;;6219487;28;20056;-76
2023/06/24 13:51:26;;;;;;;3.25;2.70;;;34.30;38.10;;;;;;6220404;28;20431;-75
2023/06/24 13:54:32;;;;;;;3.38;3.08;;;34.10;38.00;;;;;;6223665;28;20049;-76
2023/06/24 13:57:34;;;;;;;3.30;3.00;;;34.40;38.00;;;;;;6219038;28;20533;-75
2023/06/24 14:00:37;;;;;;;4.22;3.25;;;34.20;37.70;;;;;;6221121;28;20072;-76
2023/06/24 14:03:38;;;;;;;4.63;3.90;;;33.80;38.60;;;;;;6223930;28;20053;-74
2023/06/24 14:06:40;;;;;;;4.13;3.28;;;33.70;38.50;;;;;;6222693;28;20064;-77
2023/06/24 14:09:42;;;;;;;3.40;3.10;;;33.50;38.50;;;;;;6223765;28;20049;-76
2023/06/24 14:12:44;;;;;;;3.13;2.78;;;33.50;38.70;;;;;;6222244;28;20065;-76
2023/06/24 14:15:47;;;;;;;3.63;3.25;;;33.70;38.70;;;;;;6226749;28;20042;-76
2023/06/24 14:18:49;;;;;;;3.70;3.05;;;33.80;38.20;;;;;;6222008;28;20073;-76
2023/06/24 14:21:51;;;;;;;2.85;2.65;;;33.70;38.00;;;;;;6220900;28;20053;-77
2023/06/24 14:24:52;;;;;;;4.43;3.47;;;33.70;38.00;;;;;;6225118;28;20058;-77
2023/06/24 14:27:54;;;;;;;3.17;2.88;;;33.70;38.50;;;;;;6222356;28;20050;-76
2023/06/24 14:30:57;;;;;;;4.38;2.85;;;34.10;38.00;;;;;;6219755;28;20045;-77
2023/06/24 14:33:59;;;;;;;5.15;3.72;;;34.10;37.00;;;;;;6229878;28;20049;-76
2023/06/24 14:37:01;;;;;;;3.22;2.90;;;33.90;37.30;;;;;;6236982;28;20049;-75
2023/06/24 14:40:03;;;;;;;3.25;2.95;;;33.80;37.60;;;;;;6231099;28;20046;-77
2023/06/24 14:43:05;;;;;;;3.67;2.80;;;33.80;37.90;;;;;;6226790;28;20049;-77
2023/06/24 14:46:08;;;;;;;8.27;3.35;;;33.90;37.90;;;;;;6228380;28;20441;-76
2023/06/24 14:49:09;;;;;;;6.47;3.53;;;34.00;38.20;;;;;;6226860;28;20420;-77
2023/06/24 14:52:11;;;;;;;4.28;2.85;;;34.30;37.80;;;;;;6228897;28;20053;-78
2023/06/24 14:55:13;;;;;;;3.15;2.85;;;34.10;37.20;;;;;;6228106;28;20053;-77
2023/06/24 14:58:14;;;;;;;2.63;2.42;;;33.70;37.30;;;;;;6233708;28;20048;-76
2023/06/24 15:01:18;;;;;;;6.07;3.05;;;33.40;37.20;;;;;;6229179;28;20121;-77
2023/06/24 15:04:19;;;;;;;4.28;2.67;;;33.30;37.60;;;;;;6240515;28;20057;-77
2023/06/24 15:07:21;;;;;;;4.25;2.80;;;33.70;37.20;;;;;;6235100;28;20071;-77
2023/06/24 15:10:23;;;;;;;3.30;2.85;;;34.00;36.90;;;;;;6236101;28;20062;-77
2023/06/24 15:13:24;;;;;;;4.63;2.35;;;34.20;36.40;;;;;;6233741;28;20531;-77
2023/06/24 15:16:27;;;;;;;7.53;2.80;;;34.40;35.80;;;;;;6232589;28;20546;-77
2023/06/24 15:19:29;;;;;;;3.22;2.92;;;34.10;35.70;;;;;;6232145;28;20377;-77
2023/06/24 15:22:31;;;;;;;3.33;2.90;;;33.80;35.70;;;;;;6230313;28;20053;-77
2023/06/24 15:25:35;;;;;;;3.00;2.70;;;33.50;35.90;;;;;;6228482;28;20054;-78
2023/06/24 15:28:36;;;;;;;3.40;3.10;;;33.60;36.00;;;;;;6229793;28;20468;-77
2023/06/24 15:31:39;;;;;;;3.25;2.97;;;33.50;36.00;;;;;;6226519;28;20396;-78
2023/06/24 15:34:41;;;;;;;4.13;2.65;;;33.50;36.30;;;;;;6230734;28;20042;-78
2023/06/24 15:37:43;;;;;;;4.93;2.63;;;33.40;36.10;;;;;;6236484;28;20046;-77
2023/06/24 15:40:45;;;;;;;3.05;2.72;;;33.60;36.10;;;;;;6236507;28;20046;-78
2023/06/24 15:43:46;;;;;;;2.85;2.55;;;33.80;36.30;;;;;;6230756;28;20049;-78
2023/06/24 15:46:49;;;;;;;4.43;2.90;;;33.90;36.30;;;;;;6222219;28;20057;-77
2023/06/24 15:49:52;;;;;;;2.47;2.28;;;33.70;35.60;;;;;;6224669;28;20504;-76
2023/06/24 15:52:54;;;;;;;3.47;3.17;;;33.50;35.30;;;;;;6225716;28;20152;-76
2023/06/24 15:55:55;;;;;;;3.05;2.70;;;33.10;35.50;;;;;;6221424;28;20497;-77
2023/06/24 15:58:57;;;;;;;7.95;4.72;;;33.10;35.80;;;;;;6219611;28;20049;-76
2023/06/24 16:02:00;;;;;;;4.35;3.25;;;32.90;36.20;;;;;;6224164;28;20065;-76